Time;durP1;ratioP1;P1;durP2;ratioP2;P2;SDS_P1;SDS_P2;PMS_P1;PMS_P2;Temp;Humidity;BMP_temperature;BMP_pressure;BME280_temperature;BME280_humidity;BME280_pressure;Samples;Min_cycle;Max_cycle;Signal;HPM_P1;HPM_P2
2020/12/07 09:08:19;;;;;;;16.00;7.95;;;;;;;;;;5068424;28;20388;-68
2020/12/07 09:10:45;;;;;;;12.68;7.45;;;;;;;;;;5068471;28;20021;-69
2020/12/07 09:13:10;;;;;;;13.40;7.07;;;;;;;;;;5068609;28;20023;-68
2020/12/07 09:15:35;;;;;;;10.98;6.40;;;;;;;;;;5067030;28;20358;-67
2020/12/07 09:18:01;;;;;;;13.25;6.63;;;;;;;;;;5068735;28;20013;-67
2020/12/07 09:20:26;;;;;;;11.77;6.95;;;;;;;;;;5067264;28;20017;-67
2020/12/07 09:22:53;;;;;;;10.65;5.50;;;;;;;;;;5066218;28;20021;-69
2020/12/07 09:25:18;;;;;;;11.27;6.53;;;;;;;;;;5054797;28;20021;-67
2020/12/07 09:27:44;;;;;;;10.40;6.32;;;;;;;;;;5056907;28;20086;-68
2020/12/07 09:30:09;;;;;;;12.80;7.75;;;;;;;;;;5062171;28;20047;-67
2020/12/07 09:32:36;;;;;;;16.00;8.30;;;;;;;;;;5066821;28;20036;-67
2020/12/07 09:35:02;;;;;;;15.23;7.72;;;;;;;;;;5068184;28;20389;-69
2020/12/07 09:37:28;;;;;;;13.43;7.30;;;;;;;;;;5067406;28;20028;-67
2020/12/07 09:39:53;;;;;;;13.93;7.78;;;;;;;;;;5068148;28;20021;-67
2020/12/07 09:42:19;;;;;;;11.57;7.13;;;;;;;;;;5065920;28;20753;-67
2020/12/07 09:44:44;;;;;;;17.67;8.43;;;;;;;;;;5054934;28;20131;-67
2020/12/07 09:47:10;;;;;;;15.75;7.65;;;;;;;;;;5068085;28;20037;-66
2020/12/07 09:49:36;;;;;;;13.68;7.47;;;;;;;;;;5071054;28;20020;-67
2020/12/07 09:52:02;;;;;;;12.93;9.13;;;;;;;;;;5070419;28;20021;-67
2020/12/07 09:54:27;;;;;;;16.52;10.25;;;;;;;;;;5051219;28;20023;-66
2020/12/07 09:56:53;;;;;;;14.10;7.00;;;;;;;;;;5066987;28;20017;-65
2020/12/07 09:59:18;;;;;;;13.32;7.78;;;;;;;;;;5057963;28;20108;-66
2020/12/07 10:01:44;;;;;;;23.73;7.63;;;;;;;;;;5069830;28;20025;-65
2020/12/07 10:04:09;;;;;;;15.43;7.28;;;;;;;;;;5079565;28;20154;-65
2020/12/07 10:06:35;;;;;;;13.38;6.13;;;;;;;;;;5065803;28;20060;-64
2020/12/07 10:09:00;;;;;;;13.60;6.60;;;;;;;;;;5070163;28;20054;-67
2020/12/07 10:11:26;;;;;;;12.85;6.45;;;;;;;;;;5070789;28;20021;-67
2020/12/07 10:13:52;;;;;;;12.77;6.65;;;;;;;;;;5066415;28;20325;-66
2020/12/07 10:16:17;;;;;;;11.25;6.22;;;;;;;;;;5070538;28;20106;-65
2020/12/07 10:18:47;;;;;;;9.98;6.50;;;;;;;;;;5046609;28;20096;-66
2020/12/07 10:21:12;;;;;;;13.40;6.55;;;;;;;;;;5052067;28;20048;-62
2020/12/07 10:23:38;;;;;;;16.45;7.88;;;;;;;;;;5046311;28;20060;-63
2020/12/07 10:26:04;;;;;;;14.80;7.30;;;;;;;;;;5040070;28;20021;-62
2020/12/07 10:28:29;;;;;;;13.88;6.90;;;;;;;;;;5033883;28;20025;-69
2020/12/07 10:30:56;;;;;;;21.70;8.57;;;;;;;;;;5033643;28;20099;-73
2020/12/07 10:33:24;;;;;;;15.00;7.70;;;;;;;;;;5016889;28;20385;-76
2020/12/07 10:35:50;;;;;;;16.90;7.10;;;;;;;;;;5034237;28;20480;-73
2020/12/07 10:38:16;;;;;;;14.05;7.82;;;;;;;;;;5033151;28;20018;-70
2020/12/07 10:40:41;;;;;;;14.35;6.63;;;;;;;;;;5034442;28;20017;-70
2020/12/07 10:43:07;;;;;;;9.43;5.97;;;;;;;;;;5034183;28;20044;-71
2020/12/07 10:45:32;;;;;;;14.23;6.55;;;;;;;;;;5034352;28;20355;-69
2020/12/07 10:47:58;;;;;;;11.68;6.65;;;;;;;;;;5033683;28;20029;-70
2020/12/07 10:50:24;;;;;;;14.43;6.93;;;;;;;;;;5034002;28;20018;-71
2020/12/07 10:52:50;;;;;;;15.15;6.28;;;;;;;;;;5032511;28;20078;-70
2020/12/07 10:55:15;;;;;;;9.55;5.75;;;;;;;;;;5032943;28;20017;-72
2020/12/07 10:57:41;;;;;;;9.68;6.70;;;;;;;;;;5046201;28;20021;-71
2020/12/07 11:00:07;;;;;;;14.48;5.95;;;;;;;;;;5049183;28;20033;-69
2020/12/07 11:02:33;;;;;;;14.48;7.10;;;;;;;;;;5040837;28;20025;-69
2020/12/07 11:04:58;;;;;;;10.10;6.80;;;;;;;;;;5031837;28;20014;-68
2020/12/07 11:07:25;;;;;;;10.63;6.78;;;;;;;;;;5032550;28;20379;-69
2020/12/07 11:09:51;;;;;;;10.05;5.45;;;;;;;;;;5033187;28;20577;-69
2020/12/07 11:12:20;;;;;;;7.60;5.10;;;;;;;;;;5033409;28;20100;-69
2020/12/07 11:14:45;;;;;;;14.32;5.70;;;;;;;;;;5032157;28;20104;-69
2020/12/07 11:17:11;;;;;;;10.10;5.93;;;;;;;;;;5032612;28;20107;-69
2020/12/07 11:19:36;;;;;;;9.15;4.95;;;;;;;;;;5031704;28;20106;-67
2020/12/07 11:22:02;;;;;;;11.77;5.47;;;;;;;;;;5032035;28;20493;-67
2020/12/07 11:24:27;;;;;;;9.45;5.13;;;;;;;;;;5032616;28;20022;-68
2020/12/07 11:26:53;;;;;;;12.25;5.65;;;;;;;;;;5014819;28;20076;-68
2020/12/07 11:29:18;;;;;;;8.75;5.60;;;;;;;;;;5032513;28;20092;-68
2020/12/07 11:31:47;;;;;;;7.93;4.50;;;;;;;;;;5031500;28;20021;-70
2020/12/07 11:34:19;;;;;;;7.10;4.47;;;;;;;;;;5031894;28;20021;-68
2020/12/07 11:36:45;;;;;;;7.43;4.28;;;;;;;;;;5031200;28;20044;-70
2020/12/07 11:39:27;;;;;;;10.35;4.45;;;;;;;;;;5015533;28;20037;-70
2020/12/07 11:42:01;;;;;;;9.35;6.05;;;;;;;;;;5032382;28;20020;-68
2020/12/07 11:44:27;;;;;;;12.88;5.85;;;;;;;;;;5031666;28;20102;-69
2020/12/07 11:49:20;;;;;;;8.82;5.55;;;;;;;;;;5046981;28;20455;-69
2020/12/07 11:51:45;;;;;;;8.70;5.18;;;;;;;;;;5042268;28;20052;-68
2020/12/07 11:54:10;;;;;;;9.30;6.25;;;;;;;;;;5044786;28;20462;-68
2020/12/07 11:56:37;;;;;;;11.05;6.15;;;;;;;;;;5041241;28;20047;-69
2020/12/07 11:59:03;;;;;;;6.65;5.05;;;;;;;;;;5036217;28;20017;-68
2020/12/07 12:01:31;;;;;;;9.00;4.72;;;;;;;;;;5031161;28;20033;-70
2020/12/07 12:03:57;;;;;;;6.53;4.10;;;;;;;;;;5031312;28;20470;-67
2020/12/07 12:06:23;;;;;;;5.43;3.58;;;;;;;;;;5030671;28;20026;-67
2020/12/07 12:08:49;;;;;;;6.63;3.25;;;;;;;;;;5014629;28;20398;-68
2020/12/07 12:11:14;;;;;;;8.45;3.92;;;;;;;;;;5040721;28;20012;-67
2020/12/07 12:13:40;;;;;;;6.32;3.47;;;;;;;;;;5062680;28;20035;-65
2020/12/07 12:16:05;;;;;;;6.13;3.35;;;;;;;;;;5044664;28;20063;-67
2020/12/07 12:18:31;;;;;;;4.65;3.13;;;;;;;;;;5042896;28;20032;-69
2020/12/07 12:20:56;;;;;;;4.57;3.10;;;;;;;;;;5046975;28;20025;-71
2020/12/07 12:23:21;;;;;;;6.45;3.65;;;;;;;;;;5068501;28;20041;-71
2020/12/07 12:25:47;;;;;;;5.38;3.92;;;;;;;;;;5048013;28;20062;-69
2020/12/07 12:28:12;;;;;;;12.45;4.88;;;;;;;;;;5035129;28;20037;-66
2020/12/07 12:30:40;;;;;;;5.53;3.92;;;;;;;;;;5050275;28;20028;-71
2020/12/07 12:33:05;;;;;;;9.25;3.92;;;;;;;;;;5030990;28;20021;-69
2020/12/07 12:35:30;;;;;;;5.22;3.97;;;;;;;;;;5029928;28;20060;-67
2020/12/07 12:37:56;;;;;;;5.93;3.75;;;;;;;;;;5031775;28;20478;-67
2020/12/07 12:40:21;;;;;;;4.45;3.35;;;;;;;;;;5033412;28;20040;-67
2020/12/07 12:42:47;;;;;;;5.60;3.55;;;;;;;;;;5042249;28;20018;-70
2020/12/07 12:45:12;;;;;;;6.70;4.03;;;;;;;;;;5047021;28;20025;-70
2020/12/07 12:47:38;;;;;;;13.48;6.40;;;;;;;;;;5071053;28;20036;-68
2020/12/07 12:50:03;;;;;;;22.77;11.40;;;;;;;;;;5054002;28;21640;-69
2020/12/07 12:52:29;;;;;;;12.57;6.63;;;;;;;;;;5038870;28;20072;-68
2020/12/07 12:54:54;;;;;;;16.40;7.32;;;;;;;;;;5039418;28;20022;-68
2020/12/07 12:57:20;;;;;;;19.48;10.05;;;;;;;;;;5047829;28;20091;-68
2020/12/07 12:59:46;;;;;;;13.60;7.93;;;;;;;;;;5052119;28;20021;-69
2020/12/07 13:02:11;;;;;;;17.80;10.13;;;;;;;;;;5051756;28;20051;-68
2020/12/07 13:04:37;;;;;;;12.90;7.32;;;;;;;;;;5050743;28;20048;-68
2020/12/07 13:07:02;;;;;;;13.25;6.65;;;;;;;;;;5049922;28;20079;-68
2020/12/07 13:09:28;;;;;;;13.25;7.40;;;;;;;;;;5051555;28;20020;-69
2020/12/07 13:11:53;;;;;;;9.05;5.72;;;;;;;;;;5052183;28;20051;-74
2020/12/07 13:14:19;;;;;;;6.40;4.90;;;;;;;;;;5051227;28;20048;-71
2020/12/07 13:16:54;;;;;;;12.38;6.45;;;;;;;;;;5051073;28;20024;-73
2020/12/07 13:19:20;;;;;;;13.93;6.65;;;;;;;;;;5050859;28;20082;-73
2020/12/07 13:21:48;;;;;;;19.88;8.77;;;;;;;;;;5051200;28;20029;-76
2020/12/07 13:24:20;;;;;;;23.98;8.07;;;;;;;;;;5050033;28;20040;-73
2020/12/07 13:26:55;;;;;;;11.60;5.63;;;;;;;;;;5051336;28;20370;-78
2020/12/07 13:29:21;;;;;;;17.80;8.07;;;;;;;;;;5049423;28;20053;-73
2020/12/07 13:31:46;;;;;;;25.60;8.35;;;;;;;;;;5050251;28;20064;-68
2020/12/07 13:34:12;;;;;;;18.83;8.02;;;;;;;;;;5033287;28;20032;-70
2020/12/07 13:36:37;;;;;;;13.15;6.10;;;;;;;;;;5051520;28;20088;-68
2020/12/07 13:39:03;;;;;;;28.15;8.95;;;;;;;;;;5051471;28;20020;-71
2020/12/07 13:41:28;;;;;;;11.35;5.13;;;;;;;;;;5050229;28;20041;-69
2020/12/07 13:43:54;;;;;;;11.00;5.28;;;;;;;;;;5050264;28;20021;-69
2020/12/07 13:46:19;;;;;;;8.30;4.57;;;;;;;;;;5050258;28;20072;-67
2020/12/07 13:48:45;;;;;;;12.95;4.28;;;;;;;;;;5033386;28;20102;-67
2020/12/07 13:51:11;;;;;;;11.23;5.35;;;;;;;;;;5050358;28;20071;-67
2020/12/07 13:53:37;;;;;;;12.82;5.88;;;;;;;;;;5035556;28;20028;-67
2020/12/07 13:56:03;;;;;;;9.95;5.05;;;;;;;;;;5055355;28;20025;-67
2020/12/07 13:58:30;;;;;;;20.67;9.45;;;;;;;;;;5055174;28;20024;-66
2020/12/07 14:00:56;;;;;;;20.80;8.57;;;;;;;;;;5054977;28;20113;-66
2020/12/07 14:03:24;;;;;;;22.77;8.48;;;;;;;;;;5054899;28;20095;-67
2020/12/07 14:05:49;;;;;;;16.08;6.65;;;;;;;;;;5055272;28;20033;-70
2020/12/07 14:08:18;;;;;;;18.05;8.07;;;;;;;;;;5054833;28;20494;-70
2020/12/07 14:10:47;;;;;;;19.35;8.90;;;;;;;;;;5054553;28;20056;-68
2020/12/07 14:13:13;;;;;;;11.88;5.72;;;;;;;;;;5054698;28;20055;-69
2020/12/07 14:15:38;;;;;;;17.35;8.80;;;;;;;;;;5054991;28;20478;-69
2020/12/07 14:18:10;;;;;;;11.20;7.00;;;;;;;;;;5053598;28;20425;-70
2020/12/07 14:20:52;;;;;;;13.18;7.15;;;;;;;;;;5054894;28;20381;-69
2020/12/07 14:41:17;;;;;;;16.98;9.02;;;;;;;;;;5054039;28;20017;-68
2020/12/07 14:43:43;;;;;;;22.08;10.65;;;;;;;;;;5054414;28;20025;-68
2020/12/07 14:46:14;;;;;;;15.98;9.02;;;;;;;;;;5053969;28;20025;-69
2020/12/07 14:48:41;;;;;;;31.10;12.88;;;;;;;;;;5036180;28;20499;-69
2020/12/07 14:51:18;;;;;;;22.40;9.50;;;;;;;;;;5052587;28;20543;-69
2020/12/07 14:53:45;;;;;;;12.73;7.85;;;;;;;;;;5052825;28;20559;-68
2020/12/07 14:56:16;;;;;;;17.33;8.98;;;;;;;;;;5053414;28;20021;-69
2020/12/07 15:06:22;;;;;;;17.83;8.93;;;;;;;;;;5054176;28;20493;-69
2020/12/07 15:09:18;;;;;;;18.30;8.63;;;;;;;;;;5054602;28;20047;-67
2020/12/07 15:14:01;;;;;;;15.60;9.00;;;;;;;;;;5054533;28;20406;-71
2020/12/07 15:16:28;;;;;;;16.85;9.25;;;;;;;;;;5054181;28;20056;-69
2020/12/07 15:18:54;;;;;;;17.98;8.85;;;;;;;;;;5051783;28;20994;-70
2020/12/07 15:21:20;;;;;;;22.73;9.27;;;;;;;;;;5052337;28;20064;-69
2020/12/07 15:23:45;;;;;;;19.73;10.18;;;;;;;;;;5034895;28;20469;-69
2020/12/07 15:26:11;;;;;;;22.10;11.18;;;;;;;;;;5052387;28;20020;-69
2020/12/07 15:28:37;;;;;;;12.25;6.95;;;;;;;;;;5053701;28;20017;-68
2020/12/07 15:31:04;;;;;;;19.92;9.60;;;;;;;;;;5058155;28;20020;-69
2020/12/07 15:33:30;;;;;;;17.23;7.80;;;;;;;;;;5073370;28;20032;-70
2020/12/07 15:35:59;;;;;;;13.93;7.22;;;;;;;;;;5067623;28;20483;-68
2020/12/07 15:38:25;;;;;;;13.43;8.37;;;;;;;;;;5044413;28;20424;-69
2020/12/07 15:40:50;;;;;;;17.65;9.27;;;;;;;;;;5067247;28;20103;-69
2020/12/07 15:43:16;;;;;;;15.25;9.43;;;;;;;;;;5055825;28;20009;-69
2020/12/07 15:45:42;;;;;;;16.02;9.35;;;;;;;;;;5068040;28;20470;-67
2020/12/07 15:48:07;;;;;;;17.70;9.73;;;;;;;;;;5060762;28;20020;-68
2020/12/07 15:50:32;;;;;;;24.60;11.93;;;;;;;;;;5060786;28;20016;-68
2020/12/07 15:52:58;;;;;;;23.23;10.82;;;;;;;;;;5065967;28;20027;-68
2020/12/07 15:55:23;;;;;;;24.75;11.40;;;;;;;;;;5054794;28;20050;-69
2020/12/07 15:57:49;;;;;;;38.80;16.90;;;;;;;;;;5065102;28;20013;-69
2020/12/07 16:00:16;;;;;;;20.30;8.60;;;;;;;;;;5061599;28;20052;-69
2020/12/07 16:02:42;;;;;;;34.58;13.77;;;;;;;;;;5058095;28;20055;-69
2020/12/07 16:05:07;;;;;;;30.63;13.80;;;;;;;;;;5067730;28;20469;-69
2020/12/07 16:07:33;;;;;;;15.80;9.75;;;;;;;;;;5054582;28;20051;-71
2020/12/07 16:09:58;;;;;;;23.73;10.70;;;;;;;;;;5064297;28;20033;-68
2020/12/07 16:12:24;;;;;;;22.20;10.23;;;;;;;;;;5061452;28;20031;-68
